createdAt,value
2023-10-03T00:00:28.986Z,66.43
2023-10-03T00:01:29.013Z,63.09
2023-10-03T00:02:29.039Z,62.53
2023-10-03T00:03:29.180Z,67.24
2023-10-03T00:04:28.949Z,66.78
2023-10-03T00:05:28.959Z,69.71
2023-10-03T00:06:28.905Z,66.51
2023-10-03T00:07:28.910Z,67.25
2023-10-03T00:08:28.960Z,72.87
2023-10-03T00:09:28.877Z,65.38
2023-10-03T00:10:28.887Z,62.00
2023-10-03T00:11:28.887Z,59.64
2023-10-03T00:12:28.844Z,63.99
2023-10-03T00:13:28.847Z,65.69
2023-10-03T00:14:29.859Z,64.25
2023-10-03T00:15:29.724Z,66.04
2023-10-03T00:16:29.154Z,60.80
2023-10-03T00:17:28.878Z,73.45
2023-10-03T00:18:28.829Z,73.07
2023-10-03T00:19:28.779Z,59.04
2023-10-03T00:20:28.794Z,67.28
2023-10-03T00:21:28.747Z,55.89
2023-10-03T00:22:28.772Z,51.20
2023-10-03T00:23:28.838Z,68.92
2023-10-03T00:24:28.714Z,68.00
2023-10-03T00:25:28.694Z,63.55
2023-10-03T00:26:28.694Z,71.93
2023-10-03T00:27:28.685Z,65.55
2023-10-03T00:28:28.673Z,62.52
2023-10-03T00:29:28.692Z,58.92
2023-10-03T00:30:28.661Z,70.22
2023-10-03T00:31:28.650Z,51.46
2023-10-03T00:32:28.688Z,60.55
2023-10-03T00:33:28.731Z,67.35
2023-10-03T00:34:28.645Z,65.06
2023-10-03T00:35:28.612Z,73.11
2023-10-03T00:36:28.575Z,62.60
2023-10-03T00:37:28.584Z,57.40
2023-10-03T00:38:28.609Z,68.26
2023-10-03T00:39:28.570Z,62.88
2023-10-03T00:40:28.664Z,66.66
2023-10-03T00:41:28.519Z,62.01
2023-10-03T00:42:28.510Z,68.88
2023-10-03T00:43:28.580Z,69.06
2023-10-03T00:44:28.533Z,70.38
2023-10-03T00:45:28.478Z,66.33
2023-10-03T00:46:28.516Z,61.94
2023-10-03T00:47:28.562Z,67.68
2023-10-03T00:48:28.634Z,60.45
2023-10-03T00:49:28.437Z,60.66
2023-10-03T00:50:28.515Z,65.20
2023-10-03T00:51:28.594Z,65.54
2023-10-03T00:52:28.403Z,65.71
2023-10-03T00:53:28.461Z,67.15
2023-10-03T00:54:28.376Z,67.29
2023-10-03T00:55:28.364Z,67.94
2023-10-03T00:56:28.372Z,67.39
2023-10-03T00:57:28.345Z,65.65
2023-10-03T00:58:28.334Z,61.66
2023-10-03T00:59:29.321Z,63.64
2023-10-03T01:00:28.409Z,67.61
2023-10-03T01:01:28.320Z,68.81
2023-10-03T01:02:28.412Z,56.99
2023-10-03T01:03:28.542Z,63.78
2023-10-03T01:04:28.432Z,61.01
2023-10-03T01:05:28.359Z,67.30
2023-10-03T01:06:28.269Z,54.31
2023-10-03T01:07:28.235Z,70.41
2023-10-03T01:08:28.262Z,64.34
2023-10-03T01:09:28.208Z,66.51
2023-10-03T01:10:28.185Z,62.22
2023-10-03T01:11:28.242Z,71.01
2023-10-03T01:12:28.170Z,60.83
2023-10-03T01:13:28.205Z,62.17
2023-10-03T01:14:28.208Z,67.51
2023-10-03T01:15:28.146Z,66.79
2023-10-03T01:16:28.251Z,61.16
2023-10-03T01:17:28.173Z,57.56
2023-10-03T01:18:28.256Z,54.38
2023-10-03T01:19:28.114Z,65.79
2023-10-03T01:20:28.229Z,71.20
2023-10-03T01:21:28.112Z,60.25
2023-10-03T01:22:28.103Z,54.40
2023-10-03T01:23:28.106Z,54.20
2023-10-03T01:24:28.060Z,63.47
2023-10-03T01:25:28.040Z,67.88
2023-10-03T01:26:28.089Z,65.46
2023-10-03T01:27:27.994Z,61.39
2023-10-03T01:28:27.997Z,68.34
2023-10-03T01:29:28.646Z,60.44
2023-10-03T01:30:28.000Z,60.95
2023-10-03T01:31:28.033Z,53.39
2023-10-03T01:32:28.059Z,63.99
2023-10-03T01:33:28.021Z,59.99
2023-10-03T01:34:27.924Z,63.32
2023-10-03T01:35:27.961Z,60.76
2023-10-03T01:36:27.935Z,62.84
2023-10-03T01:37:27.906Z,63.79
2023-10-03T01:38:27.988Z,67.35
2023-10-03T01:39:27.879Z,58.94
2023-10-03T01:40:27.863Z,69.74
2023-10-03T01:41:27.888Z,68.18
2023-10-03T01:42:27.851Z,69.21
2023-10-03T01:43:27.825Z,64.91
2023-10-03T01:44:27.937Z,62.01
2023-10-03T01:45:27.808Z,61.98
2023-10-03T01:46:27.824Z,64.86
2023-10-03T01:47:27.825Z,60.87
2023-10-03T01:48:27.838Z,61.34
2023-10-03T01:49:27.769Z,68.10
2023-10-03T01:50:27.784Z,70.83
2023-10-03T01:51:27.781Z,66.75
2023-10-03T01:52:27.730Z,61.45
2023-10-03T01:53:27.767Z,59.42
2023-10-03T01:54:27.720Z,70.94
2023-10-03T01:55:27.713Z,64.05
2023-10-03T01:56:27.917Z,65.52
2023-10-03T01:57:27.691Z,61.01
2023-10-03T01:58:27.692Z,61.63
2023-10-03T01:59:27.670Z,64.60
2023-10-03T02:00:27.672Z,62.98
2023-10-03T02:01:27.667Z,55.24
2023-10-03T02:02:27.638Z,64.49
2023-10-03T02:03:27.782Z,64.36
2023-10-03T02:04:27.726Z,55.78
2023-10-03T02:05:27.678Z,58.67
2023-10-03T02:06:27.590Z,52.68
2023-10-03T02:07:27.611Z,65.36
2023-10-03T02:08:27.587Z,60.06
2023-10-03T02:09:27.559Z,64.55
2023-10-03T02:10:27.548Z,66.10
2023-10-03T02:11:27.552Z,63.45
2023-10-03T02:12:27.514Z,58.88
2023-10-03T02:13:28.568Z,62.14
2023-10-03T02:14:27.555Z,58.65
2023-10-03T02:15:27.613Z,57.19
2023-10-03T02:16:27.509Z,59.42
2023-10-03T02:17:27.524Z,58.89
2023-10-03T02:18:27.589Z,58.19
2023-10-03T02:19:27.463Z,64.85
2023-10-03T02:20:27.479Z,70.54
2023-10-03T02:21:27.431Z,62.46
2023-10-03T02:22:27.428Z,60.78
2023-10-03T02:23:27.488Z,57.09
2023-10-03T02:24:27.424Z,62.22
2023-10-03T02:25:27.418Z,62.77
2023-10-03T02:26:27.370Z,53.74
2023-10-03T02:27:27.410Z,54.16
2023-10-03T02:28:27.444Z,61.60
2023-10-03T02:29:27.395Z,65.90
2023-10-03T02:30:27.336Z,59.89
2023-10-03T02:31:27.352Z,67.44
2023-10-03T02:32:27.431Z,63.55
2023-10-03T02:33:27.472Z,64.83
2023-10-03T02:34:27.331Z,60.90
2023-10-03T02:35:27.359Z,64.57
2023-10-03T02:36:27.277Z,54.54
2023-10-03T02:37:27.265Z,57.00
2023-10-03T02:38:27.415Z,65.36
2023-10-03T02:39:27.239Z,68.46
2023-10-03T02:40:27.231Z,62.15
2023-10-03T02:41:27.241Z,56.86
2023-10-03T02:42:27.214Z,57.37
2023-10-03T02:43:27.244Z,62.60
2023-10-03T02:44:27.236Z,64.12
2023-10-03T02:45:27.188Z,65.59
2023-10-03T02:46:27.227Z,63.96
2023-10-03T02:47:27.182Z,60.68
2023-10-03T02:48:27.192Z,57.71
2023-10-03T02:49:27.150Z,57.78
2023-10-03T02:50:27.200Z,57.75
2023-10-03T02:51:27.130Z,61.80
2023-10-03T02:52:27.117Z,63.72
2023-10-03T02:53:27.119Z,65.03
2023-10-03T02:54:27.103Z,66.51
2023-10-03T02:55:27.093Z,57.18
2023-10-03T02:56:27.102Z,50.76
2023-10-03T02:57:27.072Z,50.60
2023-10-03T02:58:27.085Z,56.96
2023-10-03T02:59:27.070Z,65.04
2023-10-03T03:00:27.032Z,51.16
2023-10-03T03:01:27.101Z,58.16
2023-10-03T03:02:27.139Z,66.25
2023-10-03T03:03:27.080Z,60.71
2023-10-03T03:04:27.133Z,65.44
2023-10-03T03:05:27.030Z,68.30
2023-10-03T03:06:26.955Z,59.06
2023-10-03T03:07:27.954Z,60.95
2023-10-03T03:08:26.963Z,66.05
2023-10-03T03:09:26.957Z,62.37
2023-10-03T03:10:26.925Z,66.61
2023-10-03T03:11:26.946Z,71.25
2023-10-03T03:12:26.904Z,63.37
2023-10-03T03:13:27.926Z,72.54
2023-10-03T03:14:26.911Z,59.73
2023-10-03T03:15:26.888Z,56.37
2023-10-03T03:16:26.904Z,66.18
2023-10-03T03:17:26.898Z,67.18
2023-10-03T03:18:27.008Z,60.74
2023-10-03T03:19:26.833Z,56.39
2023-10-03T03:20:26.885Z,62.54
2023-10-03T03:21:26.833Z,65.57
2023-10-03T03:22:26.818Z,68.67
2023-10-03T03:23:26.853Z,67.51
2023-10-03T03:24:26.806Z,64.09
2023-10-03T03:25:26.786Z,68.64
2023-10-03T03:26:26.790Z,64.07
2023-10-03T03:27:26.750Z,68.99
2023-10-03T03:28:26.798Z,67.34
2023-10-03T03:29:26.818Z,62.69
2023-10-03T03:30:26.740Z,64.24
2023-10-03T03:31:26.768Z,67.71
2023-10-03T03:32:26.750Z,64.90
2023-10-03T03:33:26.782Z,69.96
2023-10-03T03:34:26.744Z,64.55
2023-10-03T03:35:26.752Z,65.82
2023-10-03T03:36:26.674Z,69.02
2023-10-03T03:37:26.674Z,61.39
2023-10-03T03:38:26.671Z,71.05
2023-10-03T03:39:26.664Z,62.76
2023-10-03T03:40:26.641Z,69.12
2023-10-03T03:41:26.661Z,53.82
2023-10-03T03:42:26.654Z,66.60
2023-10-03T03:43:26.616Z,70.36
2023-10-03T03:44:27.088Z,67.01
2023-10-03T03:45:26.650Z,64.64
2023-10-03T03:46:26.570Z,66.78
2023-10-03T03:47:26.662Z,62.04
2023-10-03T03:48:26.643Z,63.51
2023-10-03T03:49:26.675Z,62.38
2023-10-03T03:50:26.555Z,63.67
2023-10-03T03:51:26.551Z,67.78
2023-10-03T03:52:26.516Z,62.14
2023-10-03T03:53:27.252Z,66.34
2023-10-03T03:54:26.507Z,59.64
2023-10-03T03:55:26.485Z,66.08
2023-10-03T03:56:26.496Z,65.54
2023-10-03T03:57:26.490Z,64.00
2023-10-03T03:58:26.447Z,69.71
2023-10-03T03:59:26.470Z,69.76
2023-10-03T04:00:26.428Z,61.86
2023-10-03T04:01:26.440Z,70.32
2023-10-03T04:02:26.460Z,53.79
2023-10-03T04:03:26.518Z,68.30
2023-10-03T04:04:26.540Z,67.98
2023-10-03T04:05:26.444Z,63.14
2023-10-03T04:06:26.358Z,64.63
2023-10-03T04:07:26.363Z,65.79
2023-10-03T04:08:26.359Z,69.06
2023-10-03T04:09:26.466Z,58.12
2023-10-03T04:10:26.343Z,69.81
2023-10-03T04:11:26.324Z,69.57
2023-10-03T04:12:26.319Z,69.06
2023-10-03T04:13:26.317Z,67.60
2023-10-03T04:14:26.312Z,70.97
2023-10-03T04:15:26.310Z,68.75
2023-10-03T04:16:26.284Z,62.63
2023-10-03T04:17:26.332Z,66.45
2023-10-03T04:18:26.325Z,68.65
2023-10-03T04:19:26.246Z,71.55
2023-10-03T04:20:26.267Z,66.38
2023-10-03T04:21:26.218Z,61.31
2023-10-03T04:22:26.214Z,67.58
2023-10-03T04:23:26.240Z,66.02
2023-10-03T04:24:26.241Z,71.10
2023-10-03T04:25:26.202Z,72.15
2023-10-03T04:26:26.246Z,71.27
2023-10-03T04:27:26.184Z,71.58
2023-10-03T04:28:26.151Z,64.92
2023-10-03T04:29:26.177Z,72.12
2023-10-03T04:30:26.125Z,66.74
2023-10-03T04:31:26.158Z,66.82
2023-10-03T04:32:26.167Z,68.94
2023-10-03T04:33:26.160Z,69.39
2023-10-03T04:34:26.154Z,62.51
2023-10-03T04:35:26.713Z,68.04
2023-10-03T04:36:26.203Z,64.97
2023-10-03T04:37:26.058Z,72.84
2023-10-03T04:38:26.081Z,70.77
2023-10-03T04:39:26.068Z,69.93
2023-10-03T04:40:26.031Z,71.56
2023-10-03T04:41:26.103Z,71.49
2023-10-03T04:42:26.058Z,71.72
2023-10-03T04:43:25.998Z,73.72
2023-10-03T04:44:26.113Z,69.91
2023-10-03T04:45:26.038Z,66.67
2023-10-03T04:46:26.050Z,72.14
2023-10-03T04:47:26.657Z,71.62
2023-10-03T04:48:26.097Z,69.48
2023-10-03T04:49:25.943Z,67.08
2023-10-03T04:50:25.966Z,69.44
2023-10-03T04:51:25.934Z,68.16
2023-10-03T04:52:25.924Z,69.81
2023-10-03T04:53:25.921Z,69.57
2023-10-03T04:54:25.913Z,69.56
2023-10-03T04:55:25.894Z,66.68
2023-10-03T04:56:25.902Z,62.76
2023-10-03T04:57:25.896Z,61.83
2023-10-03T04:58:26.659Z,63.50
2023-10-03T04:59:25.903Z,64.98
2023-10-03T05:00:26.601Z,64.43
2023-10-03T05:01:27.241Z,63.06
2023-10-03T05:02:26.851Z,57.54
2023-10-03T05:03:26.840Z,61.02
2023-10-03T05:04:25.979Z,60.17
2023-10-03T05:05:25.803Z,67.48
2023-10-03T05:06:25.776Z,59.02
2023-10-03T05:07:26.605Z,69.24
2023-10-03T05:08:25.951Z,59.47
2023-10-03T05:09:25.729Z,64.53
2023-10-03T05:10:25.707Z,66.57
2023-10-03T05:11:25.880Z,61.07
2023-10-03T05:12:26.642Z,68.35
2023-10-03T05:13:26.700Z,64.54
2023-10-03T05:14:26.682Z,61.51
2023-10-03T05:15:25.680Z,71.19
2023-10-03T05:16:25.671Z,68.70
2023-10-03T05:17:25.800Z,67.64
2023-10-03T05:18:26.300Z,67.99
2023-10-03T05:19:25.627Z,65.10
2023-10-03T05:20:25.624Z,69.28
2023-10-03T05:21:25.616Z,67.84
2023-10-03T05:22:25.697Z,64.37
2023-10-03T05:23:25.750Z,68.89
2023-10-03T05:24:25.620Z,63.92
2023-10-03T05:25:25.538Z,63.08
2023-10-03T05:26:25.614Z,56.57
2023-10-03T05:27:25.534Z,70.99
2023-10-03T05:28:25.538Z,66.77
2023-10-03T05:29:25.547Z,69.33
2023-10-03T05:30:25.504Z,70.57
2023-10-03T05:31:25.759Z,67.47
2023-10-03T05:32:25.551Z,68.13
2023-10-03T05:33:25.700Z,69.69
2023-10-03T05:34:25.463Z,60.69
2023-10-03T05:35:25.488Z,67.99
2023-10-03T05:36:26.445Z,70.42
2023-10-03T05:37:25.431Z,69.80
2023-10-03T05:38:25.470Z,66.27
2023-10-03T05:39:25.400Z,66.39
2023-10-03T05:40:25.392Z,63.44
2023-10-03T05:41:25.489Z,61.56
2023-10-03T05:42:26.791Z,65.91
2023-10-03T05:43:25.555Z,67.80
2023-10-03T05:44:25.371Z,69.74
2023-10-03T05:45:25.350Z,70.03
2023-10-03T05:46:25.408Z,62.19
2023-10-03T05:47:25.414Z,70.52
2023-10-03T05:48:25.344Z,62.59
2023-10-03T05:49:25.296Z,63.25
2023-10-03T05:50:25.572Z,67.62
2023-10-03T05:51:25.283Z,67.90
2023-10-03T05:52:25.258Z,64.41
2023-10-03T05:53:25.281Z,67.01
2023-10-03T05:54:25.242Z,70.03
2023-10-03T05:55:25.233Z,65.21
2023-10-03T05:56:25.298Z,68.78
2023-10-03T05:57:25.225Z,66.33
2023-10-03T05:58:25.207Z,66.26
2023-10-03T05:59:25.273Z,66.75
2023-10-03T06:00:25.216Z,64.33
2023-10-03T06:01:25.184Z,61.93
2023-10-03T06:02:25.200Z,67.97
2023-10-03T06:03:25.216Z,66.41
2023-10-03T06:04:25.207Z,68.50
2023-10-03T06:05:26.207Z,64.77
2023-10-03T06:06:25.157Z,66.16
2023-10-03T06:07:25.111Z,67.01
2023-10-03T06:08:25.147Z,64.26
2023-10-03T06:09:25.108Z,62.85
2023-10-03T06:10:25.092Z,69.19
2023-10-03T06:11:25.074Z,64.74
2023-10-03T06:12:25.067Z,69.86
2023-10-03T06:13:25.075Z,67.53
2023-10-03T06:14:25.069Z,61.61
2023-10-03T06:15:25.011Z,68.45
2023-10-03T06:16:25.053Z,65.57
2023-10-03T06:17:25.079Z,66.94
2023-10-03T06:18:25.022Z,65.16
2023-10-03T06:19:24.963Z,67.28
2023-10-03T06:20:25.026Z,68.84
2023-10-03T06:21:25.037Z,69.14
2023-10-03T06:22:24.930Z,69.88
2023-10-03T06:23:25.009Z,71.14
2023-10-03T06:24:24.928Z,71.34
2023-10-03T06:25:24.927Z,70.57
2023-10-03T06:26:25.058Z,69.08
2023-10-03T06:27:24.884Z,64.46
2023-10-03T06:28:24.888Z,68.56
2023-10-03T06:29:24.953Z,69.90
2023-10-03T06:30:24.888Z,71.75
2023-10-03T06:31:24.888Z,69.92
2023-10-03T06:32:24.902Z,64.98
2023-10-03T06:33:24.915Z,62.63
2023-10-03T06:34:24.877Z,68.56
2023-10-03T06:35:24.846Z,68.30
2023-10-03T06:36:24.785Z,70.58
2023-10-03T06:37:24.784Z,67.56
2023-10-03T06:38:25.131Z,67.27
2023-10-03T06:39:24.756Z,69.29
2023-10-03T06:40:25.538Z,67.67
2023-10-03T06:41:24.746Z,70.78
2023-10-03T06:42:24.730Z,68.11
2023-10-03T06:43:24.698Z,68.13
2023-10-03T06:44:24.886Z,70.71
2023-10-03T06:45:24.679Z,66.65
2023-10-03T06:46:24.750Z,70.05
2023-10-03T06:47:24.851Z,70.66
2023-10-03T06:48:24.937Z,68.83
2023-10-03T06:49:24.646Z,66.86
2023-10-03T06:50:24.886Z,69.64
2023-10-03T06:51:24.602Z,71.60
2023-10-03T06:52:24.596Z,70.04
2023-10-03T06:53:24.624Z,69.82
2023-10-03T06:54:24.574Z,69.93
2023-10-03T06:55:24.566Z,69.03
2023-10-03T06:56:24.593Z,66.03
2023-10-03T06:57:24.706Z,65.61
2023-10-03T06:58:24.515Z,69.33
2023-10-03T06:59:25.143Z,69.31
2023-10-03T07:00:24.493Z,69.94
2023-10-03T07:01:24.591Z,68.39
2023-10-03T07:02:25.213Z,68.09
2023-10-03T07:03:24.686Z,68.45
2023-10-03T07:04:24.539Z,70.86
2023-10-03T07:05:25.042Z,69.98
2023-10-03T07:06:25.435Z,61.69
2023-10-03T07:07:24.452Z,69.31
2023-10-03T07:08:24.508Z,71.82
2023-10-03T07:09:24.414Z,70.44
2023-10-03T07:10:24.390Z,71.31
2023-10-03T07:11:24.362Z,70.27
2023-10-03T07:12:24.360Z,69.46
2023-10-03T07:13:26.020Z,70.55
2023-10-03T07:14:25.395Z,70.53
2023-10-03T07:15:24.325Z,71.47
2023-10-03T07:16:24.396Z,71.58
2023-10-03T07:17:24.581Z,70.86
2023-10-03T07:18:24.385Z,70.88
2023-10-03T07:19:24.282Z,73.75
2023-10-03T07:20:24.263Z,68.81
2023-10-03T07:21:24.263Z,71.75
2023-10-03T07:22:24.355Z,70.90
2023-10-03T07:23:24.230Z,71.77
2023-10-03T07:24:24.225Z,68.49
2023-10-03T07:25:24.212Z,72.36
2023-10-03T07:26:24.189Z,72.50
2023-10-03T07:27:24.220Z,71.59
2023-10-03T07:28:24.163Z,68.01
2023-10-03T07:29:24.149Z,69.79
2023-10-03T07:30:24.188Z,72.84
2023-10-03T07:31:24.167Z,69.04
2023-10-03T07:32:24.117Z,71.95
2023-10-03T07:33:24.254Z,71.70
2023-10-03T07:34:25.108Z,71.77
2023-10-03T07:35:24.089Z,71.65
2023-10-03T07:36:24.082Z,71.58
2023-10-03T07:37:24.091Z,72.21
2023-10-03T07:38:24.144Z,71.73
2023-10-03T07:39:24.098Z,71.84
2023-10-03T07:40:24.091Z,71.33
2023-10-03T07:41:24.043Z,70.75
2023-10-03T07:42:24.010Z,72.88
2023-10-03T07:43:24.162Z,70.08
2023-10-03T07:44:23.982Z,71.56
2023-10-03T07:45:24.005Z,73.76
2023-10-03T07:46:24.061Z,69.54
2023-10-03T07:47:23.956Z,75.70
2023-10-03T07:48:24.048Z,71.57
2023-10-03T07:49:23.928Z,73.45
2023-10-03T07:50:23.932Z,71.17
2023-10-03T07:51:24.041Z,70.30
2023-10-03T07:52:23.896Z,67.33
2023-10-03T07:53:23.870Z,71.59
2023-10-03T07:54:23.860Z,69.10
2023-10-03T07:55:23.861Z,67.60
2023-10-03T07:56:23.865Z,72.13
2023-10-03T07:57:23.845Z,69.11
2023-10-03T07:58:23.844Z,72.83
2023-10-03T07:59:23.818Z,76.05
2023-10-03T08:00:23.808Z,73.08
2023-10-03T08:01:23.859Z,71.19
2023-10-03T08:02:23.846Z,72.58
2023-10-03T08:03:23.880Z,70.60
2023-10-03T08:04:23.879Z,70.41
2023-10-03T08:05:23.751Z,73.90
2023-10-03T08:06:23.781Z,69.19
2023-10-03T08:07:23.744Z,73.54
2023-10-03T08:08:23.729Z,71.56
2023-10-03T08:09:23.712Z,73.55
2023-10-03T08:10:23.713Z,72.06
2023-10-03T08:11:23.682Z,71.43
2023-10-03T08:12:23.696Z,73.66
2023-10-03T08:13:23.669Z,70.57
2023-10-03T08:14:23.661Z,72.50
2023-10-03T08:15:23.646Z,73.25
2023-10-03T08:16:23.671Z,71.74
2023-10-03T08:17:23.706Z,69.92
2023-10-03T08:18:23.723Z,72.34
2023-10-03T08:19:24.059Z,72.35
2023-10-03T08:20:24.583Z,73.95
2023-10-03T08:21:23.593Z,73.63
2023-10-03T08:22:23.571Z,75.44
2023-10-03T08:23:23.554Z,72.24
2023-10-03T08:24:23.566Z,72.13
2023-10-03T08:25:23.542Z,72.77
2023-10-03T08:26:23.527Z,73.01
2023-10-03T08:27:23.609Z,71.00
2023-10-03T08:28:23.611Z,70.79
2023-10-03T08:29:23.499Z,74.77
2023-10-03T08:30:23.506Z,72.67
2023-10-03T08:31:23.462Z,72.93
2023-10-03T08:32:23.474Z,74.84
2023-10-03T08:33:23.496Z,72.70
2023-10-03T08:34:23.466Z,72.70
2023-10-03T08:35:23.435Z,71.53
2023-10-03T08:36:23.433Z,74.21
2023-10-03T08:37:23.797Z,73.10
2023-10-03T08:38:23.394Z,72.55
2023-10-03T08:39:23.534Z,72.52
2023-10-03T08:40:23.379Z,73.90
2023-10-03T08:41:23.365Z,72.96
2023-10-03T08:42:23.345Z,73.39
2023-10-03T08:43:23.337Z,72.10
2023-10-03T08:44:23.359Z,74.37
2023-10-03T08:45:23.315Z,72.21
2023-10-03T08:46:23.361Z,73.84
2023-10-03T08:47:23.360Z,72.24
2023-10-03T08:48:23.413Z,74.14
2023-10-03T08:49:23.281Z,73.76
2023-10-03T08:50:23.282Z,73.98
2023-10-03T08:51:23.259Z,73.00
2023-10-03T08:52:23.242Z,71.35
2023-10-03T08:53:23.234Z,73.31
2023-10-03T08:54:23.232Z,72.02
2023-10-03T08:55:23.657Z,73.51
2023-10-03T08:56:23.204Z,73.73
2023-10-03T08:57:23.211Z,73.17
2023-10-03T08:58:23.162Z,74.98
2023-10-03T08:59:24.169Z,74.29
2023-10-03T09:00:23.170Z,71.46
2023-10-03T09:01:23.173Z,69.66
2023-10-03T09:02:23.128Z,73.43
2023-10-03T09:03:23.205Z,72.42
2023-10-03T09:04:23.179Z,71.47
2023-10-03T09:05:23.114Z,69.18
2023-10-03T09:06:23.099Z,72.87
2023-10-03T09:07:23.128Z,72.16
2023-10-03T09:08:23.078Z,73.66
2023-10-03T09:09:23.115Z,71.81
2023-10-03T09:10:23.061Z,74.51
2023-10-03T09:11:23.071Z,73.11
2023-10-03T09:12:23.157Z,71.57
2023-10-03T09:13:24.021Z,72.98
2023-10-03T09:14:23.018Z,75.17
2023-10-03T09:15:23.003Z,73.72
2023-10-03T09:16:23.017Z,72.88
2023-10-03T09:17:22.990Z,74.70
2023-10-03T09:18:23.105Z,71.86
2023-10-03T09:19:22.953Z,74.77
2023-10-03T09:20:23.170Z,72.53
2023-10-03T09:21:22.995Z,72.45
2023-10-03T09:22:22.925Z,72.26
2023-10-03T09:23:23.913Z,72.12
2023-10-03T09:24:22.914Z,72.59
2023-10-03T09:25:22.892Z,72.10
2023-10-03T09:26:22.953Z,75.53
2023-10-03T09:27:23.151Z,73.82
2023-10-03T09:28:22.861Z,73.10
2023-10-03T09:29:22.978Z,73.52
2023-10-03T09:30:22.830Z,73.76
2023-10-03T09:31:22.833Z,72.57
2023-10-03T09:32:22.827Z,74.36
2023-10-03T09:33:22.855Z,72.31
2023-10-03T09:34:22.777Z,73.51
2023-10-03T09:35:22.782Z,74.37
2023-10-03T09:36:22.771Z,75.05
2023-10-03T09:37:23.143Z,71.67
2023-10-03T09:38:22.753Z,72.67
2023-10-03T09:39:22.920Z,73.98
2023-10-03T09:40:22.734Z,73.08
2023-10-03T09:41:22.729Z,72.90
2023-10-03T09:42:22.713Z,73.10
2023-10-03T09:43:22.684Z,72.09
2023-10-03T09:44:22.687Z,72.38
2023-10-03T09:45:22.669Z,74.61
2023-10-03T09:46:22.696Z,73.24
2023-10-03T09:47:22.717Z,73.97
2023-10-03T09:48:22.694Z,73.18
2023-10-03T09:49:22.653Z,75.11
2023-10-03T09:50:22.661Z,74.41
2023-10-03T09:51:22.615Z,72.71
2023-10-03T09:52:23.115Z,74.53
2023-10-03T09:53:22.571Z,73.54
2023-10-03T09:54:22.558Z,72.41
2023-10-03T09:55:23.536Z,72.94
2023-10-03T09:56:22.547Z,73.13
2023-10-03T09:57:22.552Z,74.36
2023-10-03T09:58:22.625Z,74.02
2023-10-03T09:59:22.587Z,72.74
2023-10-03T10:00:22.568Z,72.53
2023-10-03T10:01:22.567Z,72.67
2023-10-03T10:02:22.523Z,74.50
2023-10-03T10:03:23.592Z,73.19
2023-10-03T10:04:22.587Z,70.05
2023-10-03T10:05:22.504Z,73.10
2023-10-03T10:06:22.444Z,73.44
2023-10-03T10:07:22.438Z,74.28
2023-10-03T10:08:22.429Z,72.37
2023-10-03T10:09:22.415Z,76.24
2023-10-03T10:10:22.446Z,76.09
2023-10-03T10:11:22.385Z,74.26
2023-10-03T10:12:22.407Z,71.22
2023-10-03T10:13:22.498Z,72.82
2023-10-03T10:14:22.360Z,73.35
2023-10-03T10:15:22.344Z,74.11
2023-10-03T10:16:22.656Z,72.53
2023-10-03T10:17:22.320Z,73.55
2023-10-03T10:18:22.396Z,72.91
2023-10-03T10:19:22.308Z,72.38
2023-10-03T10:20:22.300Z,74.28
2023-10-03T10:21:22.318Z,72.48
2023-10-03T10:22:22.269Z,74.25
2023-10-03T10:23:22.270Z,73.80
2023-10-03T10:24:22.249Z,73.22
2023-10-03T10:25:22.237Z,73.60
2023-10-03T10:26:22.236Z,73.22
2023-10-03T10:27:22.271Z,72.74
2023-10-03T10:28:22.195Z,73.97
2023-10-03T10:29:22.232Z,73.50
2023-10-03T10:30:22.233Z,73.23
2023-10-03T10:31:23.498Z,74.85
2023-10-03T10:32:22.189Z,75.10
2023-10-03T10:33:22.266Z,75.00
2023-10-03T10:34:22.179Z,72.04
2023-10-03T10:35:22.118Z,74.98
2023-10-03T10:36:22.111Z,73.50
2023-10-03T10:37:22.139Z,75.23
2023-10-03T10:38:22.090Z,74.04
2023-10-03T10:39:22.067Z,73.02
2023-10-03T10:40:22.104Z,76.32
2023-10-03T10:41:22.050Z,73.30
2023-10-03T10:42:22.051Z,73.66
2023-10-03T10:43:22.026Z,73.66
2023-10-03T10:44:22.027Z,76.29
2023-10-03T10:45:22.158Z,74.24
2023-10-03T10:46:22.015Z,75.39
2023-10-03T10:47:22.047Z,74.53
2023-10-03T10:48:22.074Z,73.91
2023-10-03T10:49:21.952Z,72.09
2023-10-03T10:50:22.644Z,72.96
2023-10-03T10:51:22.939Z,74.22
2023-10-03T10:52:21.929Z,72.84
2023-10-03T10:53:21.931Z,74.04
2023-10-03T10:54:21.897Z,75.73
2023-10-03T10:55:22.594Z,74.93
2023-10-03T10:56:21.901Z,71.90
2023-10-03T10:57:21.892Z,73.85
2023-10-03T10:58:21.964Z,75.54
2023-10-03T10:59:21.836Z,73.98
2023-10-03T11:00:21.993Z,70.72
2023-10-03T11:01:21.858Z,74.88
2023-10-03T11:02:21.835Z,72.40
2023-10-03T11:03:21.976Z,74.28
2023-10-03T11:04:21.917Z,74.09
2023-10-03T11:05:21.783Z,72.75
2023-10-03T11:06:21.757Z,73.95
2023-10-03T11:07:21.797Z,74.74
2023-10-03T11:08:21.785Z,75.72
2023-10-03T11:09:21.731Z,74.22
2023-10-03T11:10:34.941Z,75.19
2023-10-03T11:11:23.711Z,71.22
2023-10-03T11:12:21.725Z,74.98
2023-10-03T11:13:21.693Z,74.09
2023-10-03T11:14:21.697Z,74.09
2023-10-03T11:15:21.710Z,73.87
2023-10-03T11:16:21.674Z,74.34
2023-10-03T11:17:21.666Z,73.32
2023-10-03T11:18:21.764Z,73.08
2023-10-03T11:19:21.658Z,73.69
2023-10-03T11:20:21.623Z,73.68
2023-10-03T11:21:21.627Z,74.78
2023-10-03T11:22:21.595Z,74.76
2023-10-03T11:23:21.577Z,74.62
2023-10-03T11:24:21.629Z,74.43
2023-10-03T11:25:21.577Z,74.46
2023-10-03T11:26:21.632Z,74.47
2023-10-03T11:27:21.564Z,75.15
2023-10-03T11:28:21.544Z,71.90
2023-10-03T11:29:21.519Z,73.68
2023-10-03T11:30:21.582Z,73.60
2023-10-03T11:31:21.565Z,73.31
2023-10-03T11:32:21.500Z,73.93
2023-10-03T11:33:22.029Z,73.34
2023-10-03T11:34:21.468Z,73.82
2023-10-03T11:35:21.453Z,74.00
2023-10-03T11:36:21.442Z,73.98
2023-10-03T11:37:21.446Z,75.07
2023-10-03T11:38:21.448Z,72.24
2023-10-03T11:39:21.474Z,75.70
2023-10-03T11:40:21.410Z,75.03
2023-10-03T11:41:21.395Z,74.38
2023-10-03T11:42:21.394Z,72.87
2023-10-03T11:43:21.369Z,74.95
2023-10-03T11:44:21.358Z,74.24
2023-10-03T11:45:22.459Z,73.50
2023-10-03T11:46:21.543Z,74.71
2023-10-03T11:47:21.334Z,74.86
2023-10-03T11:48:21.411Z,72.94
2023-10-03T11:49:21.310Z,70.54
2023-10-03T11:50:21.286Z,74.94
2023-10-03T11:51:21.273Z,75.05
2023-10-03T11:52:21.374Z,75.29
2023-10-03T11:53:21.275Z,73.77
2023-10-03T11:54:21.244Z,75.14
2023-10-03T11:55:21.229Z,74.58
2023-10-03T11:56:22.222Z,74.46
2023-10-03T11:57:21.288Z,73.45
2023-10-03T11:58:21.216Z,73.00
2023-10-03T11:59:21.196Z,74.76
2023-10-03T12:00:21.189Z,73.95
2023-10-03T12:01:21.196Z,73.04
2023-10-03T12:02:21.142Z,74.38
2023-10-03T12:03:21.419Z,74.62
2023-10-03T12:04:21.163Z,75.22
2023-10-03T12:05:21.154Z,74.43
2023-10-03T12:06:21.102Z,74.16
2023-10-03T12:07:21.102Z,73.37
2023-10-03T12:08:22.187Z,74.03
2023-10-03T12:09:22.114Z,73.74
2023-10-03T12:10:21.103Z,74.39
2023-10-03T12:11:21.050Z,75.10
2023-10-03T12:12:21.052Z,73.82
2023-10-03T12:13:21.025Z,74.05
2023-10-03T12:14:21.153Z,74.27
2023-10-03T12:15:23.065Z,74.03
2023-10-03T12:16:21.066Z,72.93
2023-10-03T12:17:20.985Z,74.09
2023-10-03T12:18:21.016Z,75.22
2023-10-03T12:19:20.972Z,74.57
2023-10-03T12:20:21.024Z,74.78
2023-10-03T12:21:21.012Z,74.74
2023-10-03T12:22:20.931Z,75.35
2023-10-03T12:23:20.937Z,72.98
2023-10-03T12:24:20.949Z,73.32
2023-10-03T12:25:21.906Z,70.78
2023-10-03T12:26:27.698Z,74.95
2023-10-03T12:27:22.920Z,72.48
2023-10-03T12:28:20.932Z,72.12
2023-10-03T12:29:23.059Z,74.89
2023-10-03T12:30:21.840Z,73.55
2023-10-03T12:31:20.846Z,72.68
2023-10-03T12:32:20.837Z,72.91
2023-10-03T12:33:20.912Z,74.45
2023-10-03T12:34:20.804Z,74.88
2023-10-03T12:35:20.805Z,73.88
2023-10-03T12:36:20.824Z,74.88
2023-10-03T12:37:20.797Z,73.89
2023-10-03T12:38:20.795Z,74.91
2023-10-03T12:39:20.757Z,74.81
2023-10-03T12:40:21.076Z,74.90
2023-10-03T12:41:20.793Z,74.21
2023-10-03T12:42:21.612Z,74.18
2023-10-03T12:43:20.707Z,71.78
2023-10-03T12:44:20.705Z,72.70
2023-10-03T12:45:20.739Z,73.85
2023-10-03T12:46:20.713Z,73.00
2023-10-03T12:47:20.655Z,73.17
2023-10-03T12:48:20.728Z,73.75
2023-10-03T12:49:20.646Z,72.13
2023-10-03T12:50:20.649Z,71.70
2023-10-03T12:51:20.678Z,71.78
2023-10-03T12:52:20.594Z,73.70